Latest Coastal Weather Observations for Coles Point

IDS60701

Issued at 5:01 pm CDT Thursday 19 January 2017 (issued every 10 minutes, with the page automatically refreshed every 10 minutes)

About coastal observations | Map of coastal stations | Coastal observations for SA | Marine services | Other Formats
Station Details ID: 018191 Name: COLES POINT Lat: -34.37 Lon: 135.37 Height: 28.0 m
Data from the previous 72 hours. | See also: Recent months at Coles Point
Date/Time
CDT
Temp
°C
Wind Pressure Rain since
9am
mm
Weather Cloud Vis
km
Sea
Height
m
Swell
Dir  Spd
kts
Gust
kts
hPa Trend Height
m
Period
s
Dir
19/05:00pm 36.6 SW 9 11 996.7 - 0.0 - - - - - - -
19/04:30pm 36.4 SW 6 9 997.0 - 0.0 - - - - - - -
19/04:00pm 34.6 SW 8 11 998.1 - 0.0 - - - - - - -
19/03:30pm 32.3 SW 10 12 998.9 - 0.0 - - - - - - -
19/03:00pm 33.0 SW 5 7 999.6 - 0.0 - - - - - - -
19/02:30pm 30.3 SW 8 11 1000.8 - 0.0 - - - - - - -
19/02:00pm 30.8 SW 9 11 1001.3 - 0.0 - - - - - - -
19/01:30pm 30.4 SW 7 9 1002.1 - 0.0 - - - - - - -
19/01:00pm 29.2 SW 9 12 1003.1 - 0.0 - - - - - - -
19/12:30pm 30.3 SE 4 7 1003.9 - 0.0 - - - - - - -
19/12:00pm 32.3 NE 6 9 1004.4 - 0.0 - - - - - - -
19/11:30am 30.9 NE 7 10 1004.8 - 0.0 - - - - - - -
19/11:00am 29.3 NE 7 11 1005.4 - 0.0 - - - - - - -
19/10:30am 27.0 NE 7 13 1006.1 - 0.0 - - - - - - -
19/10:00am 25.9 NE 11 15 1006.3 - 0.0 - - - - - - -
19/09:30am 23.6 ENE 9 13 1006.7 - 0.0 - - - - - - -
19/09:00am 21.7 ENE 12 17 1006.7 - 0.2 - - - - - - -
19/08:30am 21.0 E 8 13 1007.4 - 0.2 - - - - - - -
19/08:00am 19.6 ENE 5 6 1007.7 - 0.2 - - - - - - -
19/07:30am 18.6 NNW 1 3 1007.7 - 0.2 - - - - - - -
19/07:00am 18.2 W 3 7 1007.5 - 0.2 - - - - - - -
19/06:30am 18.2 NE 15 18 1006.5 - 0.2 - - - - - - -
19/06:00am 18.5 NE 14 20 1006.9 - 0.0 - - - - - - -
19/05:30am 18.8 ENE 7 10 1008.1 - 0.0 - - - - - - -
19/05:00am 17.7 CALM 0 0 1008.4 - 0.0 - - - - - - -
19/04:30am 17.7 SW 2 3 1009.0 - 0.0 - - - - - - -
19/04:00am 17.7 CALM 0 0 1009.0 - 0.0 - - - - - - -
19/03:30am 17.9 E 4 5 1009.3 - 0.0 - - - - - - -
19/03:00am 17.6 E 3 4 1009.8 - 0.0 - - - - - - -
19/02:30am 17.7 ESE 2 3 1010.4 - 0.0 - - - - - - -
19/02:00am 17.8 ESE 4 7 1010.6 - 0.0 - - - - - - -
19/01:30am 18.2 E 5 7 1010.9 - 0.0 - - - - - - -
19/01:00am 18.3 ESE 6 8 1011.3 - 0.0 - - - - - - -
19/12:30am 18.1 ESE 6 9 1011.5 - 0.0 - - - - - - -
19/12:00am 18.3 E 8 11 1011.8 - 0.0 - - - - - - -
 
Date/Time
CDT
Temp
°C
Wind Pressure Rain since
9am
mm
Weather Cloud Vis
km
Sea
Height
m
Swell
Dir  Spd
kts
Gust
kts
hPa Trend Height
m
Period
s
Dir
18/11:30pm 18.2 ESE 8 12 1012.1 - 0.0 - - - - - - -
18/11:00pm 18.1 ESE 5 9 1012.2 - 0.0 - - - - - - -
18/10:30pm 18.2 ESE 6 9 1012.6 - 0.0 - - - - - - -
18/10:00pm 18.6 ESE 11 15 1012.7 - 0.0 - - - - - - -
18/09:30pm 18.8 ESE 10 15 1012.9 - 0.0 - - - - - - -
18/09:00pm 19.3 SE 11 17 1012.5 - 0.0 - - - - - - -
18/08:30pm 20.1 SE 12 17 1012.3 - 0.0 - - - - - - -
18/08:00pm 21.9 SE 12 16 1012.4 - 0.0 - - - - - - -
18/07:30pm 21.8 ESE 13 17 1012.1 - 0.0 - - - - - - -
18/07:00pm 22.8 ESE 10 15 1012.2 - 0.0 - - - - - - -
18/06:30pm 24.0 ESE 13 18 1012.1 - 0.0 - - - - - - -
18/06:00pm 24.1 SE 14 17 1012.4 - 0.0 - - - - - - -
18/05:30pm 24.1 ESE 13 17 1012.6 - 0.0 - - - - - - -
18/05:00pm 24.3 ESE 12 17 1012.8 - 0.0 - - - - - - -
18/04:30pm 24.9 ESE 13 18 1012.8 - 0.0 - - - - - - -
18/04:00pm 24.7 SE 16 21 1012.8 - 0.0 - - - - - - -
18/03:30pm 25.0 ESE 15 21 1012.9 - 0.0 - - - - - - -
18/03:00pm 26.2 SE 12 17 1012.8 - 0.0 - - - - - - -
18/02:30pm 26.2 ESE 13 19 1013.0 - 0.0 - - - - - - -
18/02:00pm 24.4 ESE 18 22 1013.5 - 0.0 - - - - - - -
18/01:30pm 25.0 SE 13 19 1014.1 - 0.0 - - - - - - -
18/01:00pm 25.2 SE 15 24 1014.2 - 0.0 - - - - - - -
18/12:30pm 24.4 SE 15 21 1014.9 - 0.0 - - - - - - -
18/12:00pm 24.0 SE 15 27 1015.2 - 0.0 - - - - - - -
18/11:53am 24.0 SE 16 27 1015.3 - 0.0 - - - - - - -
18/11:30am 22.7 SE 15 24 1015.5 - 0.0 - - - - - - -
18/11:00am 22.9 SE 17 25 1015.7 - 0.0 - - - - - - -
18/10:30am 22.3 ESE 15 21 1015.8 - 0.0 - - - - - - -
18/10:00am 21.0 SE 15 20 1015.8 - 0.0 - - - - - - -
18/09:30am 19.7 SE 13 18 1016.2 - 0.0 - - - - - - -
18/09:00am 18.6 SE 13 19 1016.0 - 0.0 - - - - - - -
18/08:30am 18.6 SE 15 21 1015.5 - 0.0 - - - - - - -
18/08:00am 18.0 SE 14 18 1015.3 - 0.0 - - - - - - -
18/07:30am 17.1 SE 14 20 1015.1 - 0.0 - - - - - - -
18/07:00am 17.0 SE 13 21 1014.5 - 0.0 - - - - - - -
18/06:30am 17.0 SSE 13 17 1014.2 - 0.0 - - - - - - -
18/06:00am 17.1 SSE 12 18 1013.8 - 0.0 - - - - - - -
18/05:30am 17.2 SSE 13 18 1013.0 - 0.0 - - - - - - -
18/05:00am 17.4 SSE 14 20 1012.6 - 0.0 - - - - - - -
18/04:30am 17.5 SSE 14 21 1012.3 - 0.0 - - - - - - -
18/04:00am 17.7 SSE 12 19 1012.0 - 0.0 - - - - - - -
18/03:30am 17.6 SSE 11 16 1011.7 - 0.0 - - - - - - -
18/03:00am 17.5 SSE 9 13 1012.0 - 0.0 - - - - - - -
18/02:30am 17.5 SSE 8 12 1012.0 - 0.0 - - - - - - -
18/02:00am 17.9 SSE 10 14 1011.8 - 0.0 - - - - - - -
18/01:30am 17.9 SSE 8 12 1011.9 - 0.0 - - - - - - -
18/01:00am 18.1 SE 7 12 1012.1 - 0.0 - - - - - - -
18/12:30am 18.3 SSE 7 11 1012.3 - 0.0 - - - - - - -
18/12:00am 18.6 SE 9 13 1012.1 - 0.0 - - - - - - -
 
Date/Time
CDT
Temp
°C
Wind Pressure Rain since
9am
mm
Weather Cloud Vis
km
Sea
Height
m
Swell
Dir  Spd
kts
Gust
kts
hPa Trend Height
m
Period
s
Dir
17/11:30pm 18.7 SE 11 18 1012.4 - 0.0 - - - - - - -
17/11:00pm 18.9 SE 14 21 1012.1 - 0.0 - - - - - - -
17/10:30pm 18.9 SE 17 23 1011.7 - 0.0 - - - - - - -
17/10:00pm 18.8 SE 17 25 1011.4 - 0.0 - - - - - - -
17/09:30pm 19.3 SSE 15 20 1011.1 - 0.0 - - - - - - -
17/09:00pm 19.9 SSE 14 22 1010.8 - 0.0 - - - - - - -
17/08:47pm 20.0 SE 16 26 1010.6 - 0.0 - - - - - - -
17/08:30pm 20.7 SSE 17 24 1009.7 - 0.0 - - - - - - -
17/08:20pm 21.4 SE 19 27 1010.1 - 0.0 - - - - - - -
17/08:00pm 21.9 SE 19 28 1008.1 - 0.0 - - - - - - -
17/07:45pm 21.8 SE 20 30 1008.4 - 0.0 - - - - - - -
17/07:30pm 22.1 SE 22 32 1008.1 - 0.0 - - - - - - -
17/07:10pm 21.7 SSE 25 35 1008.4 - 0.0 - - - - - - -
17/07:00pm 22.2 SSE 26 33 1008.7 - 0.0 - - - - - - -
17/06:40pm 21.5 S 27 37 1008.7 - 0.0 - - - - - - -
17/06:30pm 21.2 S 27 36 1009.0 - 0.0 - - - - - - -
17/06:03pm 21.8 S 26 37 1008.4 - 0.0 - - - - - - -
17/06:00pm 21.6 S 25 35 1008.4 - 0.0 - - - - - - -
17/05:32pm 24.1 SSW 25 35 1007.8 - 0.0 - - - - - - -
17/05:30pm 23.9 SSW 25 33 1007.8 - 0.0 - - - - - - -
17/05:00pm 27.4 SSW 19 25 1006.6 - 0.0 - - - - - - -
17/04:30pm 29.4 SSW 18 22 1006.2 - 0.0 - - - - - - -
17/04:00pm 33.1 SSW 14 17 1005.9 - 0.0 - - - - - - -
17/03:30pm 32.9 SSW 10 13 1006.0 - 0.0 - - - - - - -
17/03:00pm 32.8 SW 8 12 1006.5 - 0.0 - - - - - - -
17/02:30pm 31.8 SW 8 11 1006.6 - 0.0 - - - - - - -
17/02:00pm 29.5 SW 7 10 1006.9 - 0.0 - - - - - - -
17/01:30pm 28.0 SW 7 9 1007.1 - 0.0 - - - - - - -
17/01:00pm 27.3 WSW 10 15 1007.4 - 0.0 - - - - - - -
17/12:39pm 30.4 NW 10 23 1006.9 - 0.0 - - - - - - -
17/12:30pm 34.9 NNW 9 11 1006.3 - 0.0 - - - - - - -
17/12:00pm 37.9 NNW 14 17 1006.3 - 0.0 - - - - - - -
17/11:30am 35.9 NNW 11 14 1006.4 - 0.0 - - - - - - -
17/11:00am 35.0 NNW 12 15 1006.5 - 0.0 - - - - - - -
17/10:30am 33.4 NNE 7 10 1006.5 - 0.0 - - - - - - -
17/10:00am 29.7 NE 9 14 1006.6 - 0.0 - - - - - - -
17/09:30am 29.2 NE 9 12 1006.4 - 0.0 - - - - - - -
17/09:00am 27.6 ENE 10 13 1006.5 - 0.0 - - - - - - -
17/08:30am 24.7 NE 12 15 1006.3 - 0.0 - - - - - - -
17/08:00am 24.1 NE 15 18 1006.0 - 0.0 - - - - - - -
17/07:30am 23.3 NE 15 18 1005.9 - 0.0 - - - - - - -
17/07:00am 22.8 NNE 15 17 1005.8 - 0.0 - - - - - - -
17/06:30am 22.8 NNE 14 16 1005.6 - 0.0 - - - - - - -
17/06:00am 22.7 NE 12 13 1005.4 - 0.0 - - - - - - -
17/05:30am 23.6 NE 13 15 1005.3 - 0.0 - - - - - - -
17/05:00am 24.6 NNE 11 13 1005.3 - 0.0 - - - - - - -
17/04:30am 23.5 NNE 12 13 1005.3 - 0.0 - - - - - - -
17/04:00am 23.7 NNE 12 14 1005.7 - 0.0 - - - - - - -
17/03:30am 23.8 NNE 11 14 1005.9 - 0.0 - - - - - - -
17/03:00am 23.7 NNE 10 12 1006.3 - 0.0 - - - - - - -
17/02:30am 24.2 NNE 12 14 1006.6 - 0.0 - - - - - - -
17/02:00am 24.4 NNE 11 13 1006.9 - 0.0 - - - - - - -
17/01:30am 24.2 NNE 11 13 1007.2 - 0.0 - - - - - - -
17/01:00am 24.5 NNE 10 12 1007.4 - 0.0 - - - - - - -
17/12:30am 24.6 NE 9 11 1007.9 - 0.0 - - - - - - -
17/12:00am 24.8 NE 9 11 1008.2 - 0.0 - - - - - - -
 
Date/Time
CDT
Temp
°C
Wind Pressure Rain since
9am
mm
Weather Cloud Vis
km
Sea
Height
m
Swell
Dir  Spd
kts
Gust
kts
hPa Trend Height
m
Period
s
Dir
16/11:30pm 25.1 NE 9 11 1008.3 - 0.0 - - - - - - -
16/11:00pm 25.4 NE 8 10 1008.5 - 0.0 - - - - - - -
16/10:30pm 25.0 NE 9 10 1008.5 - 0.0 - - - - - - -
16/10:00pm 24.4 NE 6 8 1008.6 - 0.0 - - - - - - -
16/09:30pm 25.5 ESE 8 9 1008.7 - 0.0 - - - - - - -
16/09:00pm 25.1 SSE 4 5 1008.5 - 0.0 - - - - - - -
16/08:30pm 27.2 SSE 5 5 1008.3 - 0.0 - - - - - - -
16/08:00pm 30.9 SSW 2 3 1008.1 - 0.0 - - - - - - -
16/07:30pm 30.8 SW 5 6 1008.0 - 0.0 - - - - - - -
16/07:00pm 30.5 SW 5 6 1008.0 - 0.0 - - - - - - -
16/06:30pm 30.2 WSW 4 7 1008.1 - 0.0 - - - - - - -
16/06:00pm 30.9 WSW 6 9 1008.3 - 0.0 - - - - - - -
16/05:30pm 31.2 W 7 9 1008.6 - 0.0 - - - - - - -

Other Formats:

Comma delimited format used in spreadsheet applications
http://www.bom.gov.au/fwo/IDS60701/IDS60701.94658.axf

JavaScript Object Notation format (JSON) in row-major order
http://www.bom.gov.au/fwo/IDS60701/IDS60701.94658.json